createdAt,value
2022-12-17T00:01:08.812Z,42.90
2022-12-17T00:06:29.343Z,42.80
2022-12-17T00:11:50.137Z,42.70
2022-12-17T00:17:12.528Z,42.70
2022-12-17T00:22:33.375Z,42.60
2022-12-17T00:27:53.771Z,42.70
2022-12-17T00:33:15.617Z,42.70
2022-12-17T00:38:51.148Z,42.50
2022-12-17T00:44:12.657Z,42.30
2022-12-17T00:49:39.746Z,42.50
2022-12-17T00:55:00.121Z,42.40
2022-12-17T01:00:20.499Z,42.50
2022-12-17T01:05:42.494Z,42.30
2022-12-17T01:11:02.759Z,42.00
2022-12-17T01:16:23.824Z,41.90
2022-12-17T01:21:45.607Z,41.90
2022-12-17T01:27:06.057Z,41.70
2022-12-17T01:32:26.677Z,41.60
2022-12-17T01:37:51.471Z,41.50
2022-12-17T01:43:11.817Z,41.60
2022-12-17T01:48:35.388Z,41.30
2022-12-17T01:54:00.351Z,41.60
2022-12-17T01:59:22.888Z,41.60
2022-12-17T02:04:43.971Z,41.70
2022-12-17T02:10:11.939Z,41.80
2022-12-17T02:15:37.484Z,41.70
2022-12-17T02:21:03.349Z,41.80
2022-12-17T02:26:30.567Z,41.80
2022-12-17T02:31:53.782Z,41.70
2022-12-17T02:37:14.638Z,41.80
2022-12-17T02:42:36.126Z,41.80
2022-12-17T02:47:58.448Z,41.80
2022-12-17T02:53:21.066Z,41.30
2022-12-17T02:58:41.791Z,41.10
2022-12-17T03:04:03.768Z,41.20
2022-12-17T03:09:24.380Z,42.00
2022-12-17T03:14:44.662Z,41.60
2022-12-17T03:20:06.584Z,41.60
2022-12-17T03:25:27.658Z,41.50
2022-12-17T03:30:49.271Z,41.60
2022-12-17T03:36:13.355Z,41.60
2022-12-17T03:41:45.447Z,41.50
2022-12-17T03:47:05.989Z,41.60
2022-12-17T03:52:27.671Z,41.50
2022-12-17T03:57:48.307Z,41.40
2022-12-17T04:03:10.916Z,41.80
2022-12-17T04:08:32.691Z,41.70
2022-12-17T04:13:52.996Z,41.60
2022-12-17T04:19:13.988Z,41.70
2022-12-17T04:24:35.697Z,41.70
2022-12-17T04:29:56.025Z,41.60
2022-12-17T04:35:15.514Z,41.70
2022-12-17T04:40:37.267Z,42.30
2022-12-17T04:45:57.588Z,41.40
2022-12-17T04:51:18.196Z,41.60
2022-12-17T04:56:40.420Z,41.30
2022-12-17T05:02:00.983Z,41.10
2022-12-17T05:07:21.803Z,40.90
2022-12-17T05:12:43.755Z,41.20
2022-12-17T05:18:04.108Z,40.90
2022-12-17T05:23:25.047Z,41.10
2022-12-17T05:28:47.037Z,41.30
2022-12-17T05:34:07.424Z,41.10
2022-12-17T05:39:28.065Z,40.90
2022-12-17T05:44:50.204Z,41.10
2022-12-17T05:50:10.584Z,41.00
2022-12-17T05:55:31.299Z,41.00
2022-12-17T06:00:53.190Z,41.20
2022-12-17T06:06:14.755Z,41.10
2022-12-17T06:11:35.429Z,41.30
2022-12-17T06:16:57.218Z,41.10
2022-12-17T06:22:17.722Z,40.70
2022-12-17T06:27:38.112Z,40.60
2022-12-17T06:32:59.850Z,40.70
2022-12-17T06:38:22.007Z,40.50
2022-12-17T06:43:42.720Z,40.60
2022-12-17T06:49:04.638Z,40.80
2022-12-17T06:54:25.240Z,40.50
2022-12-17T06:59:45.760Z,40.40
2022-12-17T07:05:07.628Z,40.70
2022-12-17T07:10:28.031Z,41.10
2022-12-17T07:15:48.575Z,41.40
2022-12-17T07:21:12.256Z,41.30
2022-12-17T07:26:33.200Z,41.30
2022-12-17T07:31:53.654Z,41.40
2022-12-17T07:37:20.322Z,41.20
2022-12-17T07:42:52.738Z,41.00
2022-12-17T07:48:13.722Z,40.90
2022-12-17T07:53:35.732Z,40.60
2022-12-17T07:58:56.895Z,40.50
2022-12-17T08:04:17.151Z,40.80
2022-12-17T08:09:38.935Z,40.80
2022-12-17T08:14:59.334Z,40.90
2022-12-17T08:20:19.641Z,41.00
2022-12-17T08:25:41.300Z,40.90
2022-12-17T08:31:02.207Z,40.80
2022-12-17T08:36:34.483Z,40.90
2022-12-17T08:41:59.693Z,40.90
2022-12-17T08:47:24.750Z,40.80
2022-12-17T08:52:45.072Z,40.70
2022-12-17T08:58:12.521Z,40.50
2022-12-17T09:03:33.078Z,39.40
2022-12-17T09:08:53.441Z,40.00
2022-12-17T09:14:15.392Z,40.30
2022-12-17T09:19:41.257Z,40.20
2022-12-17T09:25:01.910Z,39.90
2022-12-17T09:30:25.004Z,39.90
2022-12-17T09:35:45.667Z,39.90
2022-12-17T09:41:09.496Z,39.90
2022-12-17T09:46:39.572Z,39.50
2022-12-17T09:52:00.652Z,40.00
2022-12-17T09:57:21.820Z,40.10
2022-12-17T10:02:45.893Z,40.10
2022-12-17T10:08:07.659Z,39.50
2022-12-17T10:13:35.389Z,39.50
2022-12-17T10:18:57.288Z,39.30
2022-12-17T10:24:25.248Z,40.30
2022-12-17T10:29:48.088Z,42.30
2022-12-17T10:35:11.467Z,40.40
2022-12-17T10:40:42.090Z,40.30
2022-12-17T10:46:12.348Z,39.00
2022-12-17T10:51:50.713Z,39.20
2022-12-17T10:57:14.126Z,39.60
2022-12-17T11:02:39.274Z,40.30
2022-12-17T11:08:02.882Z,40.10
2022-12-17T11:13:27.886Z,39.70
2022-12-17T11:18:55.476Z,39.50
2022-12-17T11:24:22.663Z,39.60
2022-12-17T11:29:43.944Z,39.50
2022-12-17T11:35:21.667Z,40.10
2022-12-17T11:40:52.851Z,39.10
2022-12-17T11:46:21.509Z,38.90
2022-12-17T11:51:49.072Z,39.10
2022-12-17T11:57:18.943Z,39.10
2022-12-17T12:02:55.673Z,38.80
2022-12-17T12:08:23.275Z,38.80
2022-12-17T12:13:54.387Z,39.40
2022-12-17T12:19:24.667Z,38.70
2022-12-17T12:24:58.677Z,38.90
2022-12-17T12:30:25.052Z,38.50
2022-12-17T12:35:47.948Z,38.80
2022-12-17T12:41:21.335Z,38.90
2022-12-17T12:46:46.725Z,38.40
2022-12-17T12:52:12.188Z,38.30
2022-12-17T12:57:50.247Z,38.70
2022-12-17T13:03:12.617Z,37.90
2022-12-17T13:08:23.219Z,38.90
2022-12-17T13:13:34.126Z,39.00
2022-12-17T13:18:40.953Z,38.50
2022-12-17T13:23:45.320Z,38.70
2022-12-17T13:29:11.488Z,39.00
2022-12-17T13:34:21.870Z,37.80
2022-12-17T13:39:35.150Z,38.40
2022-12-17T13:44:45.476Z,38.30
2022-12-17T13:50:31.781Z,39.80
2022-12-17T13:55:22.357Z,39.10
2022-12-17T14:00:28.320Z,40.40
2022-12-17T14:05:38.025Z,39.20
2022-12-17T14:10:48.620Z,38.50
2022-12-17T14:15:52.912Z,38.20
2022-12-17T14:20:57.581Z,39.00
2022-12-17T14:26:01.093Z,38.70
2022-12-17T14:36:34.571Z,38.20
2022-12-17T14:41:57.162Z,38.50
2022-12-17T14:47:13.426Z,38.40
2022-12-17T14:52:28.230Z,37.90
2022-12-17T14:57:31.331Z,38.00
2022-12-17T15:02:37.970Z,38.60
2022-12-17T15:07:42.887Z,38.50
2022-12-17T15:12:46.099Z,38.20
2022-12-17T15:17:49.262Z,38.20
2022-12-17T15:22:53.695Z,38.00
2022-12-17T15:27:56.963Z,37.80
2022-12-17T15:33:00.018Z,38.20
2022-12-17T15:38:05.323Z,38.40
2022-12-17T15:43:13.794Z,38.20
2022-12-17T15:48:18.843Z,38.70
2022-12-17T15:53:23.359Z,37.70
2022-12-17T15:58:26.486Z,37.40
2022-12-17T16:03:29.595Z,37.50
2022-12-17T16:08:34.351Z,37.60
2022-12-17T16:13:38.083Z,37.40
2022-12-17T16:18:41.553Z,37.50
2022-12-17T16:23:46.968Z,37.40
2022-12-17T16:28:51.071Z,37.20
2022-12-17T16:33:54.231Z,37.20
2022-12-17T16:38:58.935Z,37.00
2022-12-17T16:44:02.147Z,37.00
2022-12-17T16:49:07.230Z,37.10
2022-12-17T16:54:14.958Z,37.00
2022-12-17T16:59:18.379Z,36.70
2022-12-17T17:04:23.550Z,36.70
2022-12-17T17:09:28.119Z,36.30
2022-12-17T17:14:31.192Z,36.30
2022-12-17T17:19:34.325Z,36.70
2022-12-17T17:24:38.772Z,36.90
2022-12-17T17:29:41.816Z,36.60
2022-12-17T17:34:44.962Z,36.60
2022-12-17T17:39:49.451Z,36.70
2022-12-17T17:44:52.924Z,36.60
2022-12-17T17:49:56.027Z,36.80
2022-12-17T17:55:00.498Z,36.50
2022-12-17T18:00:04.253Z,36.50
2022-12-17T18:05:07.705Z,36.70
2022-12-17T18:10:12.439Z,36.90
2022-12-17T18:15:19.279Z,37.00
2022-12-17T18:20:22.419Z,36.80
2022-12-17T18:25:26.916Z,36.50
2022-12-17T18:30:30.014Z,36.60
2022-12-17T18:35:33.097Z,36.70
2022-12-17T18:40:38.049Z,36.60
2022-12-17T18:45:42.118Z,36.50
2022-12-17T18:50:47.407Z,36.70
2022-12-17T18:55:51.847Z,36.50
2022-12-17T19:00:54.939Z,36.30
2022-12-17T19:05:58.215Z,36.40
2022-12-17T19:11:19.788Z,36.40
2022-12-17T19:16:24.758Z,35.60
2022-12-17T19:21:28.544Z,36.20
2022-12-17T19:26:33.922Z,36.30
2022-12-17T19:31:38.369Z,36.00
2022-12-17T19:36:42.724Z,36.20
2022-12-17T19:41:47.419Z,36.30
2022-12-17T19:46:50.665Z,36.30
2022-12-17T19:51:53.927Z,36.40
2022-12-17T19:56:58.340Z,36.30
2022-12-17T20:02:03.687Z,36.20
2022-12-17T20:07:06.904Z,36.00
2022-12-17T20:12:11.380Z,35.90
2022-12-17T20:17:14.633Z,35.80
2022-12-17T20:22:17.827Z,36.00
2022-12-17T20:27:22.348Z,35.90
2022-12-17T20:32:25.580Z,36.00
2022-12-17T20:37:28.783Z,36.10
2022-12-17T20:42:33.292Z,36.20
2022-12-17T20:47:36.408Z,36.10
2022-12-17T20:52:39.542Z,36.20
2022-12-17T20:57:44.099Z,36.30
2022-12-17T21:02:47.400Z,35.80
2022-12-17T21:07:51.101Z,35.80
2022-12-17T21:13:12.889Z,35.90
2022-12-17T21:18:16.040Z,35.50
2022-12-17T21:23:19.141Z,35.50
2022-12-17T21:28:24.030Z,35.40
2022-12-17T21:33:27.791Z,35.40
2022-12-17T21:38:31.983Z,35.90
2022-12-17T21:43:37.961Z,36.00
2022-12-17T21:48:43.022Z,36.00
2022-12-17T21:53:46.355Z,36.00
2022-12-17T21:58:51.514Z,36.50
2022-12-17T22:03:57.839Z,36.80
2022-12-17T22:09:07.818Z,36.80
2022-12-17T22:14:23.411Z,36.90
2022-12-17T22:19:26.553Z,37.10
2022-12-17T22:24:36.194Z,37.40
2022-12-17T22:29:58.759Z,37.70
2022-12-17T22:36:13.611Z,38.00
2022-12-17T22:44:34.957Z,38.30
2022-12-17T22:45:50.158Z,38.40
2022-12-17T22:51:05.572Z,38.60
2022-12-17T22:56:28.199Z,38.60
2022-12-17T23:01:36.444Z,38.70
2022-12-17T23:06:39.864Z,38.90
2022-12-17T23:11:43.091Z,39.00
2022-12-17T23:16:47.827Z,39.10
2022-12-17T23:21:50.900Z,39.30
2022-12-17T23:26:54.253Z,39.50
2022-12-17T23:31:59.099Z,39.40
2022-12-17T23:37:02.295Z,39.60
2022-12-17T23:42:05.555Z,39.70
2022-12-17T23:47:10.170Z,39.70
2022-12-17T23:52:13.389Z,39.90
2022-12-17T23:57:16.427Z,39.90
